KLUF/LUF METAR and TAF weather

Enter ICAO airport designator
Station Type Date Time Source
KLUF METAR 2022/05/24 10:58 UTC NOAA

KLUF 241058Z AUTO 00000KT 10SM CLR 24/02 A2974 RMK AO2 SLP058 T02390021 $


Station Type Date Time Source
KLUF Decoded METAR 2022/05/24 10:58 UTC NOAA

Luke Air Force Base / Phoenix, AZ, United States (KLUF) 33-32N 112-23W 332M
May 24, 2022 - 06:58 AM EDT / 2022.05.24 1058 UTC
Wind: Calm:0
Visibility: 10 mile(s):0
Sky conditions: clear
Temperature: 75.0 F (23.9 C)
Dew Point: 35.8 F (2.1 C)
Relative Humidity: 23%
Pressure (altimeter): 29.74 in. Hg (1007 hPa)
ob: KLUF 241058Z AUTO 00000KT 10SM CLR 24/02 A2974 RMK AO2 SLP058 T02390021
cycle: 11

Station Type Date Time Source
KLUF TAF 2022/05/24 04:12 UTC NOAA

TAF KLUF 240400Z 2404/2510 22010G15KT 9999 FEW120 BKN300 QNH2968INS
BECMG 2406/2407 VRB06KT 9999 SCT300 QNH2973INS
BECMG 2418/2419 22009KT 9999 FEW300 QNH2972INS
BECMG 2421/2422 24012G18KT 9999 SKC QNH2966INS
BECMG 2506/2507 VRB06KT 9999 SKC QNH2975INS TX37/2423Z TN19/2413Z

Example: see airport list